Time;durP1;ratioP1;P1;durP2;ratioP2;P2;SDS_P1;SDS_P2;PMS_P1;PMS_P2;Temp;Humidity;BMP_temperature;BMP_pressure;BME280_temperature;BME280_humidity;BME280_pressure;Samples;Min_cycle;Max_cycle;Signal;HPM_P1;HPM_P2
2023/10/28 00:00:26;;;;;;;8.85;2.42;;;;;;;;;;5013285;28;20018;-93
2023/10/28 00:02:51;;;;;;;4.30;1.40;;;;;;;;;;5013219;28;20053;-91
2023/10/28 00:05:16;;;;;;;5.75;1.65;;;;;;;;;;5014309;28;20056;-92
2023/10/28 00:07:41;;;;;;;4.87;1.27;;;;;;;;;;5013789;28;20057;-91
2023/10/28 00:10:07;;;;;;;10.23;1.93;;;;;;;;;;5013085;28;20299;-92
2023/10/28 00:12:33;;;;;;;5.45;1.55;;;;;;;;;;5014237;28;20298;-91
2023/10/28 00:14:58;;;;;;;4.35;1.63;;;;;;;;;;5014274;28;20033;-92
2023/10/28 00:17:24;;;;;;;4.68;1.10;;;;;;;;;;5013753;28;20013;-91
2023/10/28 00:19:49;;;;;;;9.50;1.55;;;;;;;;;;5009518;28;20472;-92
2023/10/28 00:22:14;;;;;;;4.28;1.30;;;;;;;;;;5014079;28;20053;-92
2023/10/28 00:24:41;;;;;;;5.50;1.37;;;;;;;;;;5013912;28;20018;-91
2023/10/28 00:27:06;;;;;;;12.82;3.55;;;;;;;;;;5014048;28;20259;-92
2023/10/28 00:29:32;;;;;;;3.03;1.20;;;;;;;;;;5013290;28;20014;-92
2023/10/28 00:31:57;;;;;;;7.30;1.30;;;;;;;;;;5014011;28;20037;-92
2023/10/28 00:34:22;;;;;;;7.23;2.00;;;;;;;;;;5012221;28;20287;-92
2023/10/28 00:36:47;;;;;;;4.00;1.30;;;;;;;;;;5013867;28;20621;-92
2023/10/28 00:39:13;;;;;;;7.03;1.20;;;;;;;;;;5013016;28;20776;-90
2023/10/28 00:41:39;;;;;;;4.85;1.20;;;;;;;;;;5011512;28;20109;-92
2023/10/28 00:44:04;;;;;;;3.93;1.57;;;;;;;;;;5011489;28;20487;-91
2023/10/28 00:46:30;;;;;;;5.85;1.27;;;;;;;;;;5013725;28;20617;-91
2023/10/28 00:48:55;;;;;;;4.18;1.10;;;;;;;;;;5011382;28;20025;-91
2023/10/28 00:51:21;;;;;;;8.40;1.95;;;;;;;;;;5012315;28;20092;-91
2023/10/28 00:53:46;;;;;;;4.60;1.08;;;;;;;;;;5013588;28;20053;-92
2023/10/28 00:56:12;;;;;;;8.82;1.45;;;;;;;;;;5013399;28;20377;-92
2023/10/28 00:58:38;;;;;;;2.63;1.00;;;;;;;;;;5011203;28;20026;-91
2023/10/28 01:01:04;;;;;;;6.13;1.23;;;;;;;;;;5011191;28;20079;-91
2023/10/28 01:03:30;;;;;;;3.78;1.02;;;;;;;;;;5011847;28;20030;-92
2023/10/28 01:05:56;;;;;;;6.30;1.70;;;;;;;;;;5013314;28;20038;-92
2023/10/28 01:08:22;;;;;;;4.80;1.20;;;;;;;;;;5010549;28;20503;-91
2023/10/28 01:10:47;;;;;;;8.30;1.25;;;;;;;;;;5011627;28;20030;-92
2023/10/28 01:13:12;;;;;;;9.57;1.83;;;;;;;;;;5011710;28;20018;-91
2023/10/28 01:15:37;;;;;;;7.13;1.13;;;;;;;;;;5012011;28;20370;-91
2023/10/28 01:18:03;;;;;;;12.82;1.83;;;;;;;;;;5012398;28;20018;-91
2023/10/28 01:20:28;;;;;;;8.98;1.40;;;;;;;;;;5011557;28;20105;-92
2023/10/28 01:22:53;;;;;;;6.95;1.98;;;;;;;;;;5012365;28;20034;-91
2023/10/28 01:25:19;;;;;;;7.63;1.20;;;;;;;;;;5011719;28;20499;-91
2023/10/28 01:27:44;;;;;;;12.25;1.73;;;;;;;;;;5010567;28;20773;-92
2023/10/28 01:30:13;;;;;;;3.78;1.30;;;;;;;;;;5011344;28;20022;-91
2023/10/28 01:32:39;;;;;;;5.47;1.10;;;;;;;;;;5012881;28;20029;-92
2023/10/28 01:35:05;;;;;;;5.13;1.50;;;;;;;;;;5011592;28;20018;-92
2023/10/28 01:37:30;;;;;;;4.88;1.30;;;;;;;;;;5012706;28;20384;-92
2023/10/28 01:39:56;;;;;;;9.27;1.50;;;;;;;;;;5010381;28;20083;-92
2023/10/28 01:42:22;;;;;;;4.75;1.05;;;;;;;;;;5010811;28;20049;-92
2023/10/28 01:44:48;;;;;;;9.98;1.42;;;;;;;;;;5012581;28;20057;-92
2023/10/28 01:47:13;;;;;;;9.98;1.40;;;;;;;;;;5012540;28;20514;-92
2023/10/28 01:49:39;;;;;;;5.75;1.58;;;;;;;;;;5011967;28;20017;-92
2023/10/28 01:52:07;;;;;;;3.78;1.08;;;;;;;;;;5010771;28;20034;-91
2023/10/28 01:54:33;;;;;;;6.82;1.23;;;;;;;;;;5010905;28;20022;-91
2023/10/28 01:56:59;;;;;;;9.27;1.45;;;;;;;;;;5010829;28;20376;-91
2023/10/28 01:59:24;;;;;;;4.38;1.08;;;;;;;;;;5010251;28;20100;-91
2023/10/28 02:01:50;;;;;;;3.65;1.02;;;;;;;;;;5010969;28;20044;-91
2023/10/28 02:04:15;;;;;;;5.07;0.97;;;;;;;;;;5012297;28;20064;-91
2023/10/28 02:06:40;;;;;;;7.50;1.17;;;;;;;;;;5012125;28;20255;-91
2023/10/28 02:09:08;;;;;;;2.92;0.90;;;;;;;;;;5009923;28;20548;-92
2023/10/28 02:11:33;;;;;;;12.73;1.45;;;;;;;;;;5012419;28;20029;-91
2023/10/28 02:13:59;;;;;;;4.43;0.82;;;;;;;;;;5012146;28;20105;-91
2023/10/28 02:16:24;;;;;;;7.13;1.17;;;;;;;;;;5010556;28;20022;-92
2023/10/28 02:18:50;;;;;;;4.10;0.73;;;;;;;;;;5011042;28;20080;-92
2023/10/28 02:21:16;;;;;;;9.45;1.13;;;;;;;;;;5011146;28;20384;-91
2023/10/28 02:23:41;;;;;;;3.28;0.88;;;;;;;;;;5012091;28;20018;-91
2023/10/28 02:26:07;;;;;;;4.80;1.10;;;;;;;;;;5012029;28;20018;-91
2023/10/28 02:28:32;;;;;;;4.05;0.90;;;;;;;;;;5010250;28;20026;-92
2023/10/28 02:30:57;;;;;;;9.20;1.80;;;;;;;;;;5010748;28;20145;-91
2023/10/28 02:33:22;;;;;;;11.60;1.35;;;;;;;;;;5015376;28;20026;-92
2023/10/28 02:35:48;;;;;;;4.40;1.23;;;;;;;;;;5017131;28;20030;-92
2023/10/28 02:38:13;;;;;;;4.85;0.70;;;;;;;;;;5017012;28;20520;-91
2023/10/28 02:40:44;;;;;;;5.78;1.67;;;;;;;;;;5018718;28;20408;-93
2023/10/28 02:43:09;;;;;;;4.03;1.07;;;;;;;;;;5018105;28;20026;-92
2023/10/28 02:45:35;;;;;;;5.45;1.23;;;;;;;;;;5017249;28;20390;-91
2023/10/28 02:48:00;;;;;;;7.18;1.25;;;;;;;;;;5017835;28;20456;-92
2023/10/28 02:50:25;;;;;;;5.67;1.20;;;;;;;;;;5017741;28;20029;-92
2023/10/28 02:52:51;;;;;;;6.97;1.10;;;;;;;;;;5018231;28;20252;-92
2023/10/28 02:55:17;;;;;;;13.30;2.07;;;;;;;;;;5017771;28;20026;-91
2023/10/28 02:57:42;;;;;;;7.40;1.77;;;;;;;;;;5017348;28;20282;-91
2023/10/28 03:00:08;;;;;;;10.07;1.70;;;;;;;;;;5017011;28;20097;-92
2023/10/28 03:02:34;;;;;;;7.38;1.58;;;;;;;;;;5029127;28;20045;-91
2023/10/28 03:05:00;;;;;;;10.02;2.30;;;;;;;;;;5036731;28;20067;-91
2023/10/28 03:07:25;;;;;;;10.17;1.67;;;;;;;;;;5026382;28;20040;-91
2023/10/28 03:09:50;;;;;;;13.23;2.30;;;;;;;;;;5015922;28;20263;-92
2023/10/28 03:12:15;;;;;;;13.40;2.00;;;;;;;;;;5016936;28;20283;-92
2023/10/28 03:14:41;;;;;;;15.27;1.63;;;;;;;;;;5017101;28;20022;-91
2023/10/28 03:17:06;;;;;;;9.73;1.10;;;;;;;;;;5017319;28;20290;-91
2023/10/28 03:19:31;;;;;;;4.40;0.85;;;;;;;;;;5018228;28;20107;-92
2023/10/28 03:21:57;;;;;;;2.17;0.70;;;;;;;;;;5016971;28;20029;-92
2023/10/28 03:24:23;;;;;;;5.45;1.30;;;;;;;;;;5016877;28;20255;-92
2023/10/28 03:26:48;;;;;;;10.23;1.50;;;;;;;;;;5017533;28;20022;-91
2023/10/28 03:29:13;;;;;;;10.32;2.25;;;;;;;;;;5016956;28;20472;-92
2023/10/28 03:31:39;;;;;;;7.67;0.93;;;;;;;;;;5016621;28;20113;-92
2023/10/28 03:34:05;;;;;;;6.63;1.37;;;;;;;;;;5018132;28;20622;-92
2023/10/28 03:36:30;;;;;;;4.78;0.70;;;;;;;;;;5015749;28;20267;-91
2023/10/28 03:38:56;;;;;;;9.43;1.67;;;;;;;;;;5018150;28;20429;-92
2023/10/28 03:41:22;;;;;;;8.15;1.15;;;;;;;;;;5017665;28;20026;-92
2023/10/28 03:43:48;;;;;;;9.05;1.42;;;;;;;;;;5015792;28;20010;-92
2023/10/28 03:46:20;;;;;;;7.45;1.73;;;;;;;;;;5014872;28;20044;-92
2023/10/28 03:48:46;;;;;;;8.75;1.42;;;;;;;;;;5014721;28;20539;-92
2023/10/28 03:51:11;;;;;;;5.27;1.00;;;;;;;;;;5014507;28;20038;-91
2023/10/28 03:53:36;;;;;;;17.10;2.10;;;;;;;;;;5015341;28;20294;-92
2023/10/28 03:56:02;;;;;;;5.95;0.95;;;;;;;;;;5014797;28;20036;-92
2023/10/28 03:58:27;;;;;;;8.07;1.35;;;;;;;;;;5013625;28;20056;-91
2023/10/28 04:00:56;;;;;;;5.27;1.30;;;;;;;;;;5014776;28;20018;-91
2023/10/28 04:03:22;;;;;;;10.38;1.25;;;;;;;;;;5015130;28;20247;-91
2023/10/28 04:05:47;;;;;;;9.60;1.38;;;;;;;;;;5014056;28;20033;-91
2023/10/28 04:08:13;;;;;;;9.93;1.52;;;;;;;;;;5014033;28;20052;-92
2023/10/28 04:10:38;;;;;;;7.97;1.10;;;;;;;;;;5013212;28;20022;-91
2023/10/28 04:13:04;;;;;;;6.20;1.38;;;;;;;;;;5012840;28;20026;-91
2023/10/28 04:15:29;;;;;;;12.15;3.58;;;;;;;;;;5014374;28;20096;-92
2023/10/28 04:17:54;;;;;;;6.85;1.42;;;;;;;;;;5012256;28;20030;-92
2023/10/28 04:20:20;;;;;;;8.45;1.10;;;;;;;;;;5012138;28;20495;-92
2023/10/28 04:22:45;;;;;;;10.30;1.88;;;;;;;;;;5013024;28;20084;-91
2023/10/28 04:25:10;;;;;;;6.88;1.33;;;;;;;;;;5013217;28;20018;-92
2023/10/28 04:27:35;;;;;;;4.70;0.80;;;;;;;;;;5012139;28;20117;-92
2023/10/28 04:30:03;;;;;;;5.07;1.33;;;;;;;;;;5012301;28;20054;-92
2023/10/28 04:32:29;;;;;;;8.80;1.20;;;;;;;;;;5012772;28;20053;-92
2023/10/28 04:34:54;;;;;;;8.23;1.10;;;;;;;;;;5012784;28;20049;-91
2023/10/28 04:37:19;;;;;;;11.77;1.25;;;;;;;;;;5013331;28;20038;-91
2023/10/28 04:39:44;;;;;;;8.27;1.73;;;;;;;;;;5014176;28;20018;-92
2023/10/28 04:42:10;;;;;;;16.83;1.95;;;;;;;;;;5013866;28;20541;-92
2023/10/28 04:44:35;;;;;;;9.98;1.20;;;;;;;;;;5012338;28;20472;-92
2023/10/28 04:47:03;;;;;;;15.38;1.80;;;;;;;;;;5011389;28;20049;-92
2023/10/28 04:49:29;;;;;;;10.32;1.55;;;;;;;;;;5012292;28;20382;-91
2023/10/28 04:51:54;;;;;;;9.05;1.27;;;;;;;;;;5012453;28;20120;-92
2023/10/28 04:54:20;;;;;;;10.15;1.80;;;;;;;;;;5011553;28;20034;-91
2023/10/28 04:56:45;;;;;;;8.40;1.70;;;;;;;;;;5010681;28;20057;-92
2023/10/28 04:59:10;;;;;;;9.25;1.27;;;;;;;;;;5012401;28;20542;-92
2023/10/28 05:01:35;;;;;;;8.05;0.95;;;;;;;;;;5013486;28;20472;-92
2023/10/28 05:04:01;;;;;;;11.93;1.20;;;;;;;;;;5011997;28;20018;-92
2023/10/28 05:06:26;;;;;;;7.23;1.00;;;;;;;;;;5013377;28;20615;-92
2023/10/28 05:08:51;;;;;;;6.17;1.63;;;;;;;;;;5010918;28;20831;-92
2023/10/28 05:11:16;;;;;;;8.63;1.20;;;;;;;;;;5013171;28;20769;-91
2023/10/28 05:13:42;;;;;;;8.20;1.02;;;;;;;;;;5013463;28;20018;-91
2023/10/28 05:16:07;;;;;;;5.70;1.13;;;;;;;;;;5013235;28;20033;-92
2023/10/28 05:18:33;;;;;;;4.03;1.00;;;;;;;;;;5012298;28;20108;-91
2023/10/28 05:20:58;;;;;;;13.93;1.80;;;;;;;;;;5011423;28;20399;-91
2023/10/28 05:23:23;;;;;;;6.22;1.23;;;;;;;;;;5011840;28;20014;-91
2023/10/28 05:25:49;;;;;;;10.80;3.17;;;;;;;;;;5011980;28;20122;-92
2023/10/28 05:28:14;;;;;;;15.90;1.88;;;;;;;;;;5010826;28;20145;-92
2023/10/28 05:30:39;;;;;;;10.50;1.27;;;;;;;;;;5010822;28;20038;-92
2023/10/28 05:33:04;;;;;;;10.17;1.47;;;;;;;;;;5011643;28;20149;-92
2023/10/28 05:35:30;;;;;;;13.63;2.08;;;;;;;;;;5011187;28;20263;-91
2023/10/28 05:37:57;;;;;;;11.60;1.45;;;;;;;;;;5011916;28;20026;-92
2023/10/28 05:40:23;;;;;;;10.65;2.50;;;;;;;;;;4993111;28;20045;-92
2023/10/28 05:42:48;;;;;;;6.10;1.23;;;;;;;;;;4992107;28;20477;-92
2023/10/28 05:45:14;;;;;;;9.77;1.95;;;;;;;;;;5004626;28;20072;-92
2023/10/28 05:47:39;;;;;;;8.73;1.50;;;;;;;;;;5011668;28;20017;-92
2023/10/28 05:50:05;;;;;;;9.23;2.40;;;;;;;;;;5010909;28;20036;-92
2023/10/28 05:52:30;;;;;;;8.82;1.77;;;;;;;;;;5012502;28;20400;-92
2023/10/28 05:54:56;;;;;;;10.40;1.23;;;;;;;;;;5011251;28;20389;-91
2023/10/28 05:57:21;;;;;;;12.57;1.93;;;;;;;;;;5012785;28;20026;-91
2023/10/28 05:59:46;;;;;;;12.40;2.28;;;;;;;;;;5010317;28;20275;-91
2023/10/28 06:02:12;;;;;;;20.10;2.35;;;;;;;;;;5011319;28;20489;-92
2023/10/28 06:04:37;;;;;;;13.23;1.97;;;;;;;;;;5012444;28;20022;-92
2023/10/28 06:07:02;;;;;;;12.68;2.20;;;;;;;;;;5011130;28;20259;-92
2023/10/28 06:09:27;;;;;;;12.15;2.72;;;;;;;;;;5009799;28;20025;-92
2023/10/28 06:11:54;;;;;;;13.48;1.42;;;;;;;;;;5011239;28;20049;-92
2023/10/28 06:14:20;;;;;;;11.93;1.42;;;;;;;;;;5011199;28;20383;-92
2023/10/28 06:16:46;;;;;;;13.60;1.45;;;;;;;;;;5011330;28;20022;-92
2023/10/28 06:19:11;;;;;;;14.57;2.30;;;;;;;;;;5010511;28;20072;-92
2023/10/28 06:21:36;;;;;;;8.80;1.20;;;;;;;;;;5011334;28;20018;-92
2023/10/28 06:24:02;;;;;;;13.33;1.83;;;;;;;;;;5011885;28;20432;-94
2023/10/28 06:26:28;;;;;;;7.25;1.27;;;;;;;;;;5010990;28;20684;-91
2023/10/28 06:28:53;;;;;;;14.20;1.85;;;;;;;;;;5011447;28;20017;-93
2023/10/28 06:31:19;;;;;;;9.52;1.60;;;;;;;;;;5011009;28;20045;-92
2023/10/28 06:33:44;;;;;;;9.93;2.25;;;;;;;;;;5012276;28;20025;-92
2023/10/28 06:36:09;;;;;;;21.67;2.75;;;;;;;;;;5010460;28;20022;-92
2023/10/28 06:38:34;;;;;;;10.52;1.83;;;;;;;;;;5006847;28;20060;-92
2023/10/28 06:41:00;;;;;;;12.77;1.88;;;;;;;;;;5008402;28;20026;-91
2023/10/28 06:43:25;;;;;;;14.55;1.88;;;;;;;;;;5010994;28;20029;-91
2023/10/28 06:45:50;;;;;;;14.13;2.28;;;;;;;;;;5011903;28;20468;-92
2023/10/28 06:48:15;;;;;;;24.38;2.35;;;;;;;;;;5009997;28;20037;-92
2023/10/28 06:50:41;;;;;;;13.65;1.75;;;;;;;;;;5010606;28;20080;-92
2023/10/28 06:53:07;;;;;;;12.88;1.85;;;;;;;;;;5012249;28;20029;-92
2023/10/28 06:55:33;;;;;;;12.20;2.47;;;;;;;;;;5012166;28;20472;-92
2023/10/28 06:57:59;;;;;;;11.60;1.95;;;;;;;;;;5010954;28;20025;-93
2023/10/28 07:00:27;;;;;;;14.52;1.77;;;;;;;;;;5010895;28;20026;-92
2023/10/28 07:02:53;;;;;;;7.38;1.23;;;;;;;;;;5010647;28;20113;-93
2023/10/28 07:05:18;;;;;;;11.20;2.05;;;;;;;;;;5012302;28;20143;-92
2023/10/28 07:07:44;;;;;;;16.98;2.60;;;;;;;;;;5011986;28;20038;-92
2023/10/28 07:10:10;;;;;;;16.90;2.15;;;;;;;;;;5009078;28;20025;-91
2023/10/28 07:12:35;;;;;;;26.67;3.33;;;;;;;;;;5009463;28;20117;-92
2023/10/28 07:15:00;;;;;;;17.10;2.60;;;;;;;;;;5010841;28;20294;-93
2023/10/28 07:17:26;;;;;;;14.48;2.30;;;;;;;;;;5011971;28;20095;-92
2023/10/28 07:19:54;;;;;;;19.35;3.17;;;;;;;;;;5011276;28;20014;-92
2023/10/28 07:22:22;;;;;;;14.82;2.55;;;;;;;;;;5015467;28;20033;-92
2023/10/28 07:24:48;;;;;;;26.60;3.20;;;;;;;;;;5015088;28;20014;-93
2023/10/28 07:27:13;;;;;;;18.50;2.92;;;;;;;;;;5015435;28;20021;-91
2023/10/28 07:29:39;;;;;;;13.27;2.20;;;;;;;;;;5013846;28;20112;-93
2023/10/28 07:32:05;;;;;;;14.40;3.10;;;;;;;;;;5012537;28;20034;-92
2023/10/28 07:34:30;;;;;;;17.85;1.90;;;;;;;;;;5027433;28;20057;-90
2023/10/28 07:36:58;;;;;;;18.50;2.33;;;;;;;;;;5015466;28;20480;-92
2023/10/28 07:39:23;;;;;;;14.68;2.65;;;;;;;;;;5013583;28;20105;-94
2023/10/28 07:41:49;;;;;;;16.52;2.38;;;;;;;;;;5016423;28;20437;-91
2023/10/28 07:44:14;;;;;;;11.85;1.42;;;;;;;;;;5015544;28;20037;-92
2023/10/28 07:46:39;;;;;;;19.70;2.45;;;;;;;;;;5010649;28;20099;-93
2023/10/28 07:49:05;;;;;;;14.50;2.10;;;;;;;;;;5014690;28;20085;-90
2023/10/28 07:51:30;;;;;;;17.08;2.17;;;;;;;;;;5012518;28;20065;-91
2023/10/28 07:53:55;;;;;;;13.95;2.45;;;;;;;;;;5010264;28;20092;-89
2023/10/28 07:56:20;;;;;;;9.63;1.83;;;;;;;;;;5014556;28;20064;-90
2023/10/28 07:58:46;;;;;;;12.00;1.70;;;;;;;;;;5014480;28;20354;-89
2023/10/28 08:01:18;;;;;;;13.68;2.58;;;;;;;;;;5009622;28;20029;-91
2023/10/28 08:03:43;;;;;;;;;;;;;;;;;;5011062;28;20026;-90
2023/10/28 08:06:10;;;;;;;27.70;3.50;;;;;;;;;;5013199;28;19932;-89
2023/10/28 08:08:35;;;;;;;12.85;2.05;;;;;;;;;;5014305;28;20101;-90
2023/10/28 08:11:02;;;;;;;8.52;1.60;;;;;;;;;;5012501;28;20117;-90
2023/10/28 08:13:27;;;;;;;13.68;2.10;;;;;;;;;;5013361;28;20548;-91
2023/10/28 08:15:52;;;;;;;15.13;3.20;;;;;;;;;;5013829;28;20125;-90
2023/10/28 08:18:19;;;;;;;12.87;1.77;;;;;;;;;;5013486;28;20299;-90
2023/10/28 08:20:44;;;;;;;15.73;2.47;;;;;;;;;;5013128;28;20279;-90
2023/10/28 08:23:09;;;;;;;12.93;2.20;;;;;;;;;;5011331;28;20438;-89
2023/10/28 08:25:35;;;;;;;12.02;1.90;;;;;;;;;;5014898;28;20013;-87
2023/10/28 08:28:00;;;;;;;20.25;2.00;;;;;;;;;;5021386;28;20562;-88
2023/10/28 08:30:26;;;;;;;14.63;2.47;;;;;;;;;;5021354;28;20030;-88
2023/10/28 08:32:52;;;;;;;13.10;2.63;;;;;;;;;;5030181;28;20025;-88
2023/10/28 08:35:19;;;;;;;18.47;2.80;;;;;;;;;;5027961;28;20371;-88
2023/10/28 08:37:44;;;;;;;17.15;2.67;;;;;;;;;;5014508;28;20277;-88
2023/10/28 08:40:13;;;;;;;18.00;2.53;;;;;;;;;;5023152;28;20017;-88
2023/10/28 08:42:38;;;;;;;22.48;2.90;;;;;;;;;;5026011;28;20479;-88
2023/10/28 08:45:04;;;;;;;14.63;2.53;;;;;;;;;;5031182;28;20032;-88
2023/10/28 08:47:31;;;;;;;14.55;2.40;;;;;;;;;;5017750;28;20025;-89
2023/10/28 08:49:58;;;;;;;14.25;2.38;;;;;;;;;;5021872;28;20477;-88
2023/10/28 08:52:24;;;;;;;19.40;2.67;;;;;;;;;;5026983;28;20043;-90
2023/10/28 08:54:50;;;;;;;14.48;2.70;;;;;;;;;;5026616;28;20451;-88
2023/10/28 08:57:16;;;;;;;15.73;2.60;;;;;;;;;;5017155;28;20025;-88
2023/10/28 08:59:41;;;;;;;21.60;3.00;;;;;;;;;;5028417;28;20098;-87
2023/10/28 09:02:10;;;;;;;14.40;2.08;;;;;;;;;;5027506;28;20029;-88
2023/10/28 09:04:35;;;;;;;21.20;2.60;;;;;;;;;;5012529;28;20049;-88
2023/10/28 09:07:04;;;;;;;12.27;2.47;;;;;;;;;;5022336;28;20060;-88
2023/10/28 09:09:30;;;;;;;20.35;3.10;;;;;;;;;;5012082;28;20317;-88
2023/10/28 09:11:58;;;;;;;17.08;2.70;;;;;;;;;;5015463;28;20397;-88
2023/10/28 09:14:24;;;;;;;22.75;4.53;;;;;;;;;;5010728;28;20427;-87
2023/10/28 09:16:49;;;;;;;17.50;2.97;;;;;;;;;;5007785;28;20021;-88
2023/10/28 09:19:21;;;;;;;22.23;3.25;;;;;;;;;;5003179;28;20073;-89
2023/10/28 09:21:49;;;;;;;25.10;3.55;;;;;;;;;;5012655;28;20350;-88
2023/10/28 09:24:15;;;;;;;17.23;3.40;;;;;;;;;;5012725;28;20025;-88
2023/10/28 09:26:40;;;;;;;17.02;3.15;;;;;;;;;;5012056;28;20388;-87
2023/10/28 09:29:05;;;;;;;21.23;4.47;;;;;;;;;;5012805;28;20014;-87
2023/10/28 09:31:32;;;;;;;19.75;2.38;;;;;;;;;;5011935;28;20294;-88
2023/10/28 09:33:57;;;;;;;22.67;3.17;;;;;;;;;;5012507;28;20033;-88
2023/10/28 09:36:23;;;;;;;15.48;3.80;;;;;;;;;;5012372;28;20021;-87
2023/10/28 09:38:49;;;;;;;17.80;3.45;;;;;;;;;;5007714;28;20021;-88
2023/10/28 09:41:16;;;;;;;28.15;3.78;;;;;;;;;;5011696;28;20018;-87
2023/10/28 09:43:42;;;;;;;15.00;2.75;;;;;;;;;;5008811;28;20611;-87
2023/10/28 09:46:07;;;;;;;17.60;2.90;;;;;;;;;;5009786;28;20069;-88
2023/10/28 09:48:35;;;;;;;21.10;3.30;;;;;;;;;;5010607;28;20046;-88
2023/10/28 09:51:01;;;;;;;27.35;3.75;;;;;;;;;;5012034;28;20061;-88
2023/10/28 09:53:30;;;;;;;22.15;3.88;;;;;;;;;;5011473;28;20490;-88
2023/10/28 09:55:56;;;;;;;26.77;3.97;;;;;;;;;;5011148;28;20026;-88
2023/10/28 09:58:23;;;;;;;20.33;3.65;;;;;;;;;;5010370;28;20032;-87
2023/10/28 10:00:50;;;;;;;19.05;2.88;;;;;;;;;;5009485;28;20026;-90
2023/10/28 10:03:22;;;;;;;26.08;4.10;;;;;;;;;;5003833;28;20252;-88
2023/10/28 10:05:47;;;;;;;36.53;6.05;;;;;;;;;;5010237;28;20030;-87
2023/10/28 10:08:22;;;;;;;26.08;4.20;;;;;;;;;;5011756;28;20022;-87
2023/10/28 10:10:49;;;;;;;29.60;5.32;;;;;;;;;;5009922;28;20124;-90
2023/10/28 10:13:18;;;;;;;25.33;3.97;;;;;;;;;;5011171;28;20022;-89
2023/10/28 10:15:48;;;;;;;32.35;5.90;;;;;;;;;;5009576;28;20113;-89
2023/10/28 10:18:21;;;;;;;33.72;4.95;;;;;;;;;;5010653;28;20018;-88
2023/10/28 10:20:46;;;;;;;32.53;4.28;;;;;;;;;;5002967;28;20073;-89
2023/10/28 10:23:13;;;;;;;25.17;4.00;;;;;;;;;;5001490;28;20014;-88
2023/10/28 10:25:40;;;;;;;27.45;5.03;;;;;;;;;;5001521;28;20475;-88
2023/10/28 10:28:14;;;;;;;25.33;3.85;;;;;;;;;;5011441;28;20036;-89
2023/10/28 10:30:40;;;;;;;24.08;4.30;;;;;;;;;;5008556;28;20381;-88
2023/10/28 10:33:05;;;;;;;23.70;4.00;;;;;;;;;;5022738;28;20081;-88
2023/10/28 10:35:31;;;;;;;21.30;3.33;;;;;;;;;;5021084;28;21260;-88
2023/10/28 10:38:04;;;;;;;28.35;5.00;;;;;;;;;;5012126;28;20507;-88
2023/10/28 10:40:33;;;;;;;30.13;4.95;;;;;;;;;;5023595;28;20300;-88
2023/10/28 10:43:08;;;;;;;26.98;3.97;;;;;;;;;;5019087;28;20460;-88
2023/10/28 10:45:34;;;;;;;23.55;4.68;;;;;;;;;;5007812;28;20449;-90
2023/10/28 10:48:01;;;;;;;31.00;4.47;;;;;;;;;;5009852;28;20017;-89
2023/10/28 10:50:26;;;;;;;40.88;6.80;;;;;;;;;;5009039;28;20025;-90
2023/10/28 10:52:52;;;;;;;27.70;4.87;;;;;;;;;;4994073;28;20027;-90
2023/10/28 10:55:21;;;;;;;24.92;4.50;;;;;;;;;;4998884;28;20629;-89
2023/10/28 10:57:47;;;;;;;27.63;3.67;;;;;;;;;;5015442;28;20022;-90
2023/10/28 11:00:12;;;;;;;31.47;5.83;;;;;;;;;;5013737;28;20112;-90
2023/10/28 11:02:38;;;;;;;32.47;5.63;;;;;;;;;;5014736;28;20263;-90
2023/10/28 11:05:04;;;;;;;33.65;6.10;;;;;;;;;;5014908;28;20424;-90
2023/10/28 11:07:29;;;;;;;26.52;4.20;;;;;;;;;;5014973;28;20415;-90
2023/10/28 11:09:55;;;;;;;21.95;3.47;;;;;;;;;;5014904;28;20097;-89
2023/10/28 11:12:23;;;;;;;32.00;4.85;;;;;;;;;;5015317;28;20037;-88
2023/10/28 11:14:49;;;;;;;22.35;4.50;;;;;;;;;;5014203;28;20654;-90
2023/10/28 11:17:14;;;;;;;23.98;3.97;;;;;;;;;;5014133;28;20108;-89
2023/10/28 11:19:46;;;;;;;28.47;5.07;;;;;;;;;;5014632;28;20033;-89
2023/10/28 11:22:12;;;;;;;35.95;4.88;;;;;;;;;;5015015;28;20351;-89
2023/10/28 11:24:38;;;;;;;29.15;4.43;;;;;;;;;;5015075;28;20025;-90
2023/10/28 11:27:03;;;;;;;25.85;4.07;;;;;;;;;;5014493;28;20020;-89
2023/10/28 11:29:28;;;;;;;22.23;4.30;;;;;;;;;;5014599;28;20029;-88
2023/10/28 11:31:54;;;;;;;28.45;4.57;;;;;;;;;;5014215;28;20072;-89
2023/10/28 11:34:20;;;;;;;32.63;4.45;;;;;;;;;;5014745;28;20041;-89
2023/10/28 11:36:45;;;;;;;25.10;4.97;;;;;;;;;;5011010;28;20020;-90
2023/10/28 11:39:13;;;;;;;16.53;3.33;;;;;;;;;;5012162;28;20310;-89
2023/10/28 11:41:42;;;;;;;28.10;5.60;;;;;;;;;;5011748;28;20633;-90
2023/10/28 11:44:10;;;;;;;22.92;4.78;;;;;;;;;;5008693;28;20022;-89
2023/10/28 11:46:35;;;;;;;27.75;4.70;;;;;;;;;;5012320;28;20122;-89
2023/10/28 11:49:00;;;;;;;25.50;4.43;;;;;;;;;;5014412;28;20094;-88
2023/10/28 11:51:27;;;;;;;25.33;4.22;;;;;;;;;;5012338;28;20492;-89
2023/10/28 11:53:53;;;;;;;28.40;6.30;;;;;;;;;;5012836;28;20010;-89
2023/10/28 11:56:21;;;;;;;27.77;4.82;;;;;;;;;;5010957;28;20071;-87
2023/10/28 11:58:49;;;;;;;31.65;5.45;;;;;;;;;;5010470;28;20026;-89
2023/10/28 12:01:14;;;;;;;28.80;6.50;;;;;;;;;;5012139;28;20033;-90
2023/10/28 12:03:39;;;;;;;28.08;5.10;;;;;;;;;;5014190;28;20030;-89
2023/10/28 12:06:05;;;;;;;26.57;5.60;;;;;;;;;;5026792;28;20022;-87
2023/10/28 12:08:30;;;;;;;27.33;4.38;;;;;;;;;;5012338;28;20275;-88
2023/10/28 12:10:55;;;;;;;34.88;6.22;;;;;;;;;;5014647;28;20105;-88
2023/10/28 12:13:21;;;;;;;29.92;5.32;;;;;;;;;;5014066;28;20040;-87
2023/10/28 12:15:46;;;;;;;33.88;5.68;;;;;;;;;;5013312;28;20454;-88
2023/10/28 12:18:11;;;;;;;28.50;5.07;;;;;;;;;;5011854;28;20026;-88
2023/10/28 12:20:37;;;;;;;23.10;4.37;;;;;;;;;;5014294;28;20384;-88
2023/10/28 12:23:03;;;;;;;26.10;4.32;;;;;;;;;;5013700;28;20726;-89
2023/10/28 12:25:28;;;;;;;32.10;4.50;;;;;;;;;;5011769;28;20033;-88
2023/10/28 12:27:53;;;;;;;33.58;4.10;;;;;;;;;;5014079;28;20026;-90
2023/10/28 12:30:19;;;;;;;26.02;4.28;;;;;;;;;;5010453;28;20006;-89
2023/10/28 12:32:46;;;;;;;27.40;4.30;;;;;;;;;;5012477;28;20030;-89
2023/10/28 12:35:13;;;;;;;27.55;4.68;;;;;;;;;;5013314;28;20427;-88
2023/10/28 12:37:38;;;;;;;29.13;5.25;;;;;;;;;;5013779;28;20018;-89
2023/10/28 12:40:05;;;;;;;32.67;5.47;;;;;;;;;;5011203;28;20080;-90
2023/10/28 12:42:31;;;;;;;22.98;5.10;;;;;;;;;;5012903;28;20258;-89
2023/10/28 12:44:56;;;;;;;34.17;6.03;;;;;;;;;;5012964;28;20017;-90
2023/10/28 12:47:21;;;;;;;20.45;3.67;;;;;;;;;;5012024;28;20018;-88
2023/10/28 12:49:47;;;;;;;25.93;4.93;;;;;;;;;;5013095;28;20080;-90
2023/10/28 12:52:12;;;;;;;20.77;4.00;;;;;;;;;;5011227;28;20374;-89
2023/10/28 12:54:37;;;;;;;28.65;4.95;;;;;;;;;;5012355;28;20298;-88
2023/10/28 12:57:05;;;;;;;43.17;6.78;;;;;;;;;;5010340;28;20156;-89
2023/10/28 12:59:30;;;;;;;21.75;3.95;;;;;;;;;;5008807;28;20304;-90
2023/10/28 13:01:55;;;;;;;22.98;4.32;;;;;;;;;;5003541;28;20096;-89
2023/10/28 13:04:22;;;;;;;22.17;4.03;;;;;;;;;;5004467;28;20045;-89
2023/10/28 13:06:48;;;;;;;24.95;4.25;;;;;;;;;;4994228;28;20255;-89
2023/10/28 13:09:13;;;;;;;27.33;5.22;;;;;;;;;;5008543;28;20010;-89
2023/10/28 13:11:39;;;;;;;24.70;3.90;;;;;;;;;;5012423;28;20040;-89
2023/10/28 13:14:05;;;;;;;21.25;4.25;;;;;;;;;;5009959;28;20453;-90
2023/10/28 13:16:32;;;;;;;26.13;4.28;;;;;;;;;;5011390;28;20511;-88
2023/10/28 13:18:57;;;;;;;23.00;3.95;;;;;;;;;;5011745;28;20021;-89
2023/10/28 13:21:23;;;;;;;22.95;4.38;;;;;;;;;;5011844;28;20050;-89
2023/10/28 13:23:48;;;;;;;24.38;5.40;;;;;;;;;;5010474;28;20101;-89
2023/10/28 13:26:13;;;;;;;23.67;4.22;;;;;;;;;;5006922;28;20022;-88
2023/10/28 13:28:39;;;;;;;18.50;3.77;;;;;;;;;;5012576;28;20064;-88
2023/10/28 13:31:04;;;;;;;25.00;4.13;;;;;;;;;;5010953;28;20326;-89
2023/10/28 13:33:29;;;;;;;19.20;3.63;;;;;;;;;;5011770;28;20116;-89
2023/10/28 13:35:55;;;;;;;30.90;4.80;;;;;;;;;;5011856;28;20358;-88
2023/10/28 13:38:21;;;;;;;26.00;3.72;;;;;;;;;;5009062;28;20030;-90
2023/10/28 13:40:46;;;;;;;24.92;5.68;;;;;;;;;;5012224;28;20010;-88
2023/10/28 13:43:11;;;;;;;24.77;3.83;;;;;;;;;;5012574;28;20087;-88
2023/10/28 13:45:37;;;;;;;17.58;3.28;;;;;;;;;;5012117;28;20018;-89
2023/10/28 13:48:04;;;;;;;23.03;4.03;;;;;;;;;;5008641;28;20061;-90
2023/10/28 13:50:29;;;;;;;24.60;3.83;;;;;;;;;;5000061;28;20746;-89
2023/10/28 13:52:55;;;;;;;25.77;4.07;;;;;;;;;;5010560;28;20029;-89
2023/10/28 13:55:20;;;;;;;24.27;5.20;;;;;;;;;;5010961;28;20267;-90
2023/10/28 13:57:46;;;;;;;19.70;4.10;;;;;;;;;;5010942;28;20549;-88
2023/10/28 14:00:13;;;;;;;23.35;4.82;;;;;;;;;;5005412;28;20291;-87
2023/10/28 14:02:38;;;;;;;25.65;5.15;;;;;;;;;;5006843;28;20010;-87
2023/10/28 14:05:03;;;;;;;27.15;5.22;;;;;;;;;;5011756;28;20479;-89
2023/10/28 14:07:29;;;;;;;38.33;5.25;;;;;;;;;;5010092;28;20057;-88
2023/10/28 14:09:54;;;;;;;21.73;3.70;;;;;;;;;;5011823;28;20522;-90
2023/10/28 14:12:19;;;;;;;26.47;4.90;;;;;;;;;;5011072;28;20823;-90
2023/10/28 14:14:44;;;;;;;21.83;3.43;;;;;;;;;;5005026;28;20685;-89
2023/10/28 14:17:10;;;;;;;22.95;3.97;;;;;;;;;;5020902;28;20753;-90
2023/10/28 14:19:36;;;;;;;38.80;4.50;;;;;;;;;;5020001;28;20539;-90
2023/10/28 14:22:02;;;;;;;26.17;5.43;;;;;;;;;;5024983;28;20017;-90
2023/10/28 14:24:29;;;;;;;24.98;4.70;;;;;;;;;;5018269;28;20020;-87
2023/10/28 14:26:55;;;;;;;19.75;3.97;;;;;;;;;;5029099;28;20025;-85